createdAt,value
2017-08-05T00:00:09.747Z,972.14
2017-08-05T00:01:10.450Z,972.13
2017-08-05T00:02:11.406Z,972.09
2017-08-05T00:03:12.114Z,972.13
2017-08-05T00:04:12.821Z,972.15
2017-08-05T00:05:13.531Z,972.15
2017-08-05T00:06:14.246Z,972.16
2017-08-05T00:07:15.282Z,972.14
2017-08-05T00:08:15.991Z,972.19
2017-08-05T00:09:16.700Z,972.12
2017-08-05T00:10:17.404Z,972.14
2017-08-05T00:11:18.108Z,972.14
2017-08-05T00:12:19.063Z,972.17
2017-08-05T00:13:19.763Z,972.18
2017-08-05T00:14:20.461Z,972.18
2017-08-05T00:15:21.164Z,972.14
2017-08-05T00:16:21.866Z,972.13
2017-08-05T00:17:22.817Z,972.13
2017-08-05T00:18:23.524Z,972.12
2017-08-05T00:19:24.236Z,972.14
2017-08-05T00:20:24.945Z,972.12
2017-08-05T00:21:25.649Z,972.16
2017-08-05T00:22:26.606Z,972.17
2017-08-05T00:23:27.311Z,972.17
2017-08-05T00:24:28.015Z,972.17
2017-08-05T00:25:28.718Z,972.15
2017-08-05T00:26:29.418Z,972.16
2017-08-05T00:27:30.369Z,972.18
2017-08-05T00:28:31.071Z,972.13
2017-08-05T00:29:31.781Z,972.12
2017-08-05T00:30:32.482Z,972.14
2017-08-05T00:31:33.184Z,972.11
2017-08-05T00:32:33.891Z,972.12
2017-08-05T00:33:34.600Z,972.09
2017-08-05T00:34:35.301Z,972.04
2017-08-05T00:35:36.017Z,972.05
2017-08-05T00:36:36.722Z,972.06
2017-08-05T00:37:37.675Z,972.07
2017-08-05T00:38:38.382Z,972.08
2017-08-05T00:39:39.083Z,972.11
2017-08-05T00:40:39.790Z,972.13
2017-08-05T00:41:40.491Z,972.13
2017-08-05T00:42:41.195Z,972.12
2017-08-05T00:43:41.896Z,972.09
2017-08-05T00:44:42.599Z,972.12
2017-08-05T00:45:43.305Z,972.15
2017-08-05T00:46:44.015Z,972.23
2017-08-05T00:47:44.970Z,972.20
2017-08-05T00:48:45.677Z,972.17
2017-08-05T00:49:46.381Z,972.16
2017-08-05T00:50:47.084Z,972.18
2017-08-05T00:51:47.786Z,972.22
2017-08-05T00:52:48.746Z,972.21
2017-08-05T00:53:49.448Z,972.25
2017-08-05T00:54:50.150Z,972.24
2017-08-05T00:55:50.851Z,972.19
2017-08-05T00:56:51.555Z,972.17
2017-08-05T00:57:52.511Z,972.17
2017-08-05T00:58:53.214Z,972.21
2017-08-05T00:59:53.915Z,972.18
2017-08-05T01:00:54.621Z,972.12
2017-08-05T01:01:55.321Z,972.12
2017-08-05T01:02:56.272Z,972.09
2017-08-05T01:03:56.972Z,972.10
2017-08-05T01:04:57.678Z,972.10
2017-08-05T01:05:58.382Z,972.16
2017-08-05T01:06:59.085Z,972.14
2017-08-05T01:08:00.040Z,972.13
2017-08-05T01:09:00.747Z,972.10
2017-08-05T01:10:01.449Z,972.11
2017-08-05T01:11:02.168Z,972.11
2017-08-05T01:12:02.874Z,972.10
2017-08-05T01:13:03.831Z,972.14
2017-08-05T01:14:04.536Z,972.09
2017-08-05T01:15:05.240Z,972.06
2017-08-05T01:16:05.947Z,972.06
2017-08-05T01:17:06.657Z,972.08
2017-08-05T01:18:07.615Z,972.05
2017-08-05T01:19:08.322Z,972.06
2017-08-05T01:20:09.023Z,972.04
2017-08-05T01:21:09.730Z,972.04
2017-08-05T01:22:10.436Z,972.07
2017-08-05T01:23:11.391Z,972.08
2017-08-05T01:24:12.095Z,972.08
2017-08-05T01:25:12.807Z,972.08
2017-08-05T01:26:13.510Z,972.04
2017-08-05T01:27:14.215Z,972.08
2017-08-05T01:28:15.169Z,972.08
2017-08-05T01:29:15.869Z,972.08
2017-08-05T01:30:16.573Z,972.10
2017-08-05T01:31:17.272Z,972.07
2017-08-05T01:32:17.978Z,972.09
2017-08-05T01:33:18.981Z,972.06
2017-08-05T01:34:19.685Z,972.03
2017-08-05T01:35:20.387Z,972.03
2017-08-05T01:36:21.083Z,972.00
2017-08-05T01:37:21.786Z,972.02
2017-08-05T01:38:22.737Z,972.00
2017-08-05T01:39:23.443Z,972.00
2017-08-05T01:40:24.149Z,972.03
2017-08-05T01:41:24.855Z,972.01
2017-08-05T01:42:25.558Z,972.00
2017-08-05T01:43:26.510Z,971.99
2017-08-05T01:44:27.210Z,972.01
2017-08-05T01:45:27.913Z,972.00
2017-08-05T01:46:28.614Z,972.02
2017-08-05T01:47:29.315Z,972.02
2017-08-05T01:48:30.317Z,972.02
2017-08-05T01:49:31.020Z,972.07
2017-08-05T01:50:31.719Z,972.08
2017-08-05T01:51:32.421Z,972.00
2017-08-05T01:52:33.124Z,972.00
2017-08-05T01:53:34.124Z,972.03
2017-08-05T01:54:34.820Z,972.05
2017-08-05T01:55:35.520Z,972.06
2017-08-05T01:56:36.220Z,972.05
2017-08-05T01:57:36.921Z,972.06
2017-08-05T01:58:37.875Z,972.07
2017-08-05T01:59:38.579Z,972.01
2017-08-05T02:00:39.282Z,972.01
2017-08-05T02:01:39.990Z,972.00
2017-08-05T02:02:40.704Z,972.04
2017-08-05T02:03:41.657Z,972.01
2017-08-05T02:04:42.359Z,972.01
2017-08-05T02:05:43.062Z,972.00
2017-08-05T02:06:43.764Z,972.01
2017-08-05T02:07:44.465Z,972.09
2017-08-05T02:08:45.421Z,972.07
2017-08-05T02:09:46.129Z,972.04
2017-08-05T02:10:46.831Z,972.07
2017-08-05T02:11:47.531Z,972.05
2017-08-05T02:12:48.241Z,972.03
2017-08-05T02:13:49.193Z,972.01
2017-08-05T02:14:49.895Z,972.03
2017-08-05T02:15:50.595Z,971.99
2017-08-05T02:16:51.293Z,972.01
2017-08-05T02:17:51.994Z,971.98
2017-08-05T02:18:52.951Z,972.02
2017-08-05T02:19:53.659Z,972.06
2017-08-05T02:20:54.364Z,972.08
2017-08-05T02:21:55.066Z,972.06
2017-08-05T02:22:55.769Z,972.08
2017-08-05T02:23:56.724Z,972.08
2017-08-05T02:24:57.425Z,972.11
2017-08-05T02:25:58.126Z,972.10
2017-08-05T02:26:58.830Z,972.11
2017-08-05T02:27:59.529Z,972.10
2017-08-05T02:29:00.480Z,972.08
2017-08-05T02:30:01.184Z,972.06
2017-08-05T02:31:01.909Z,972.08
2017-08-05T02:32:02.632Z,972.03
2017-08-05T02:33:03.339Z,972.06
2017-08-05T02:34:04.290Z,972.03
2017-08-05T02:35:04.992Z,971.97
2017-08-05T02:36:05.693Z,971.99
2017-08-05T02:37:06.398Z,971.97
2017-08-05T02:38:07.102Z,971.96
2017-08-05T02:39:07.808Z,971.90
2017-08-05T02:40:08.511Z,971.89
2017-08-05T02:41:09.211Z,971.90
2017-08-05T02:42:09.914Z,971.87
2017-08-05T02:43:10.619Z,971.80
2017-08-05T02:44:11.570Z,971.80
2017-08-05T02:45:12.269Z,971.82
2017-08-05T02:46:12.971Z,971.81
2017-08-05T02:47:13.679Z,971.88
2017-08-05T02:48:14.380Z,971.86
2017-08-05T02:49:15.082Z,971.84
2017-08-05T02:50:15.783Z,971.87
2017-08-05T02:51:16.487Z,971.89
2017-08-05T02:52:17.193Z,971.93
2017-08-05T02:53:17.897Z,971.95
2017-08-05T02:54:18.849Z,971.96
2017-08-05T02:55:19.554Z,971.95
2017-08-05T02:56:20.251Z,971.91
2017-08-05T02:57:20.955Z,971.90
2017-08-05T02:58:21.656Z,971.88
2017-08-05T02:59:22.606Z,971.91
2017-08-05T03:00:23.309Z,971.92
2017-08-05T03:01:24.020Z,971.92
2017-08-05T03:02:24.726Z,971.86
2017-08-05T03:03:25.433Z,971.89
2017-08-05T03:04:26.136Z,971.88
2017-08-05T03:05:26.837Z,971.88
2017-08-05T03:06:27.538Z,971.85
2017-08-05T03:07:28.242Z,971.84
2017-08-05T03:08:28.944Z,971.86
2017-08-05T03:09:29.898Z,971.84
2017-08-05T03:10:30.607Z,971.86
2017-08-05T03:11:31.312Z,971.87
2017-08-05T03:12:32.013Z,971.84
2017-08-05T03:13:32.710Z,971.81
2017-08-05T03:14:33.658Z,971.84
2017-08-05T03:15:34.359Z,971.82
2017-08-05T03:16:35.061Z,971.79
2017-08-05T03:17:35.764Z,971.82
2017-08-05T03:18:36.472Z,971.79
2017-08-05T03:19:37.428Z,971.79
2017-08-05T03:20:38.128Z,971.79
2017-08-05T03:21:38.830Z,971.74
2017-08-05T03:22:39.531Z,971.75
2017-08-05T03:23:40.230Z,971.78
2017-08-05T03:24:40.933Z,971.77
2017-08-05T03:25:41.635Z,971.73
2017-08-05T03:26:42.343Z,971.75
2017-08-05T03:27:43.052Z,971.77
2017-08-05T03:28:43.753Z,971.75
2017-08-05T03:29:44.706Z,971.72
2017-08-05T03:30:45.410Z,971.70
2017-08-05T03:31:46.115Z,971.70
2017-08-05T03:32:46.824Z,971.68
2017-08-05T03:33:47.530Z,971.66
2017-08-05T03:34:48.485Z,971.62
2017-08-05T03:35:49.185Z,971.61
2017-08-05T03:36:49.886Z,971.60
2017-08-05T03:37:50.586Z,971.59
2017-08-05T03:38:51.287Z,971.55
2017-08-05T03:39:52.237Z,971.58
2017-08-05T03:40:52.937Z,971.53
2017-08-05T03:41:53.637Z,971.48
2017-08-05T03:42:54.337Z,971.52
2017-08-05T03:43:55.040Z,971.48
2017-08-05T03:44:55.991Z,971.49
2017-08-05T03:45:56.694Z,971.47
2017-08-05T03:46:57.393Z,971.53
2017-08-05T03:47:58.097Z,971.53
2017-08-05T03:48:58.802Z,971.56
2017-08-05T03:49:59.758Z,971.57
2017-08-05T03:51:00.461Z,971.58
2017-08-05T03:52:01.163Z,971.60
2017-08-05T03:53:01.864Z,971.60
2017-08-05T03:54:02.568Z,971.59
2017-08-05T03:55:03.526Z,971.64
2017-08-05T03:56:04.231Z,971.64
2017-08-05T03:57:04.934Z,971.59
2017-08-05T03:58:05.639Z,971.59
2017-08-05T03:59:06.343Z,971.60
2017-08-05T04:00:07.295Z,971.61
2017-08-05T04:01:08.002Z,971.55
2017-08-05T04:02:08.710Z,971.58
2017-08-05T04:03:09.415Z,971.60
2017-08-05T04:04:10.126Z,971.60
2017-08-05T04:05:11.133Z,971.59
2017-08-05T04:06:11.841Z,971.61
2017-08-05T04:07:12.546Z,971.63
2017-08-05T04:08:13.248Z,971.61
2017-08-05T04:09:13.952Z,971.60
2017-08-05T04:10:15.010Z,971.58
2017-08-05T04:11:15.712Z,971.62
2017-08-05T04:12:16.415Z,971.60
2017-08-05T04:13:17.117Z,971.59
2017-08-05T04:14:17.823Z,971.57
2017-08-05T04:15:18.529Z,971.60
2017-08-05T04:16:19.237Z,971.59
2017-08-05T04:17:19.944Z,971.63
2017-08-05T04:18:20.650Z,971.60
2017-08-05T04:19:21.357Z,971.64
2017-08-05T04:20:22.322Z,971.63
2017-08-05T04:21:23.030Z,971.63
2017-08-05T04:22:23.731Z,971.62
2017-08-05T04:23:24.440Z,971.64
2017-08-05T04:24:25.147Z,971.64
2017-08-05T04:25:26.158Z,971.61
2017-08-05T04:26:26.862Z,971.63
2017-08-05T04:27:27.566Z,971.64
2017-08-05T04:28:28.269Z,971.64
2017-08-05T04:29:28.976Z,971.63
2017-08-05T04:30:29.930Z,971.58
2017-08-05T04:31:30.639Z,971.59
2017-08-05T04:32:31.346Z,971.60
2017-08-05T04:33:32.053Z,971.58
2017-08-05T04:34:32.756Z,971.58
2017-08-05T04:35:33.710Z,971.58
2017-08-05T04:36:34.413Z,971.55
2017-08-05T04:37:35.119Z,971.55
2017-08-05T04:38:35.828Z,971.55
2017-08-05T04:39:36.537Z,971.56
2017-08-05T04:40:37.496Z,971.53
2017-08-05T04:41:38.201Z,971.57
2017-08-05T04:42:38.908Z,971.55
2017-08-05T04:43:39.610Z,971.52
2017-08-05T04:44:40.312Z,971.53
2017-08-05T04:45:41.938Z,971.55
2017-08-05T04:46:55.431Z,971.53
2017-08-05T04:48:02.768Z,971.51
2017-08-05T04:49:03.607Z,971.53
2017-08-05T04:50:04.594Z,971.54
2017-08-05T04:51:05.550Z,971.55
2017-08-05T04:52:06.256Z,971.56
2017-08-05T04:53:06.959Z,971.59
2017-08-05T04:54:07.664Z,971.59
2017-08-05T04:55:08.372Z,971.59
2017-08-05T04:56:09.375Z,971.60
2017-08-05T04:57:10.083Z,971.61
2017-08-05T04:58:10.790Z,971.60
2017-08-05T04:59:11.500Z,971.56
2017-08-05T05:00:12.205Z,971.57
2017-08-05T05:01:13.163Z,971.59
2017-08-05T05:02:13.868Z,971.59
2017-08-05T05:03:14.573Z,971.58
2017-08-05T05:04:15.289Z,971.53
2017-08-05T05:05:15.992Z,971.52
2017-08-05T05:06:16.949Z,971.52
2017-08-05T05:07:17.656Z,971.52
2017-08-05T05:08:18.362Z,971.54
2017-08-05T05:09:19.069Z,971.53
2017-08-05T05:10:19.774Z,971.54
2017-08-05T05:11:20.731Z,971.50
2017-08-05T05:12:21.436Z,971.52
2017-08-05T05:13:22.147Z,971.54
2017-08-05T05:14:22.852Z,971.53
2017-08-05T05:15:23.561Z,971.51
2017-08-05T05:16:24.518Z,971.50
2017-08-05T05:17:25.223Z,971.52
2017-08-05T05:18:25.932Z,971.52
2017-08-05T05:19:26.637Z,971.55
2017-08-05T05:20:27.343Z,971.51
2017-08-05T05:21:28.296Z,971.52
2017-08-05T05:22:29.002Z,971.53
2017-08-05T05:23:29.711Z,971.54
2017-08-05T05:24:30.416Z,971.53
2017-08-05T05:25:31.119Z,971.52
2017-08-05T05:26:32.074Z,971.46
2017-08-05T05:27:32.777Z,971.49
2017-08-05T05:28:33.485Z,971.41
2017-08-05T05:29:34.192Z,971.45
2017-08-05T05:30:34.898Z,971.49
2017-08-05T05:31:35.851Z,971.49
2017-08-05T05:32:36.555Z,971.49
2017-08-05T05:33:37.265Z,971.53
2017-08-05T05:34:37.970Z,971.52
2017-08-05T05:35:38.677Z,971.55
2017-08-05T05:36:39.641Z,971.53
2017-08-05T05:37:40.352Z,971.51
2017-08-05T05:38:41.063Z,971.50
2017-08-05T05:39:41.777Z,971.53
2017-08-05T05:40:42.480Z,971.52
2017-08-05T05:41:43.489Z,971.50
2017-08-05T05:42:44.192Z,971.57
2017-08-05T05:43:44.895Z,971.54
2017-08-05T05:44:45.603Z,971.55
2017-08-05T05:45:46.307Z,971.56
2017-08-05T05:46:47.268Z,971.56
2017-08-05T05:47:47.971Z,971.58
2017-08-05T05:48:48.677Z,971.62
2017-08-05T05:49:49.378Z,971.60
2017-08-05T05:50:50.088Z,971.59
2017-08-05T05:51:51.039Z,971.57
2017-08-05T05:52:51.744Z,971.52
2017-08-05T05:53:52.455Z,971.51
2017-08-05T05:54:53.165Z,971.51
2017-08-05T05:55:53.874Z,971.46
2017-08-05T05:56:54.833Z,971.45
2017-08-05T05:57:55.537Z,971.45
2017-08-05T05:58:56.249Z,971.46
2017-08-05T05:59:56.962Z,971.44
2017-08-05T06:00:57.668Z,971.48
2017-08-05T06:01:58.622Z,971.48
2017-08-05T06:02:59.329Z,971.45
2017-08-05T06:04:00.033Z,971.45
2017-08-05T06:05:00.737Z,971.50
2017-08-05T06:06:01.447Z,971.55
2017-08-05T06:07:02.408Z,971.62
2017-08-05T06:08:03.122Z,971.57
2017-08-05T06:09:03.836Z,971.57
2017-08-05T06:10:04.545Z,971.52
2017-08-05T06:11:05.254Z,971.51
